sensor_id;sensor_type;location;lat;lon;timestamp;pressure;altitude;pressure_sealevel;temperature;humidity
17230;BME280;8731;50.364;8.958;2023-02-03T00:01:22;101056.38;;;8.30;87.56
17230;BME280;8731;50.364;8.958;2023-02-03T00:05:46;101047.88;;;8.30;87.64
17230;BME280;8731;50.364;8.958;2023-02-03T00:10:09;101056.38;;;8.38;87.56
17230;BME280;8731;50.364;8.958;2023-02-03T00:14:32;101052.59;;;8.34;88.06
17230;BME280;8731;50.364;8.958;2023-02-03T00:18:57;101053.50;;;8.35;88.23
17230;BME280;8731;50.364;8.958;2023-02-03T00:23:20;101063.44;;;8.33;88.02
17230;BME280;8731;50.364;8.958;2023-02-03T00:27:44;101072.13;;;8.28;88.48
17230;BME280;8731;50.364;8.958;2023-02-03T00:32:06;101069.97;;;8.38;88.75
17230;BME280;8731;50.364;8.958;2023-02-03T00:36:29;101073.59;;;8.33;88.44
17230;BME280;8731;50.364;8.958;2023-02-03T00:41:27;101052.94;;;8.37;88.26
17230;BME280;8731;50.364;8.958;2023-02-03T00:51:32;101039.34;;;8.29;88.77
17230;BME280;8731;50.364;8.958;2023-02-03T00:55:54;101020.88;;;8.23;88.71
17230;BME280;8731;50.364;8.958;2023-02-03T01:00:19;100995.31;;;8.29;89.72
17230;BME280;8731;50.364;8.958;2023-02-03T01:04:41;101024.31;;;8.38;89.82
17230;BME280;8731;50.364;8.958;2023-02-03T01:09:04;101015.44;;;8.35;90.36
17230;BME280;8731;50.364;8.958;2023-02-03T01:13:27;101012.34;;;8.23;90.42
17230;BME280;8731;50.364;8.958;2023-02-03T01:17:51;101011.28;;;8.21;90.70
17230;BME280;8731;50.364;8.958;2023-02-03T01:22:13;101005.50;;;8.15;91.31
17230;BME280;8731;50.364;8.958;2023-02-03T01:26:36;100991.50;;;8.25;91.19
17230;BME280;8731;50.364;8.958;2023-02-03T01:31:08;101007.28;;;8.23;90.91
17230;BME280;8731;50.364;8.958;2023-02-03T01:35:34;100990.44;;;8.23;91.03
17230;BME280;8731;50.364;8.958;2023-02-03T01:39:57;100991.69;;;8.27;91.13
17230;BME280;8731;50.364;8.958;2023-02-03T01:44:44;100997.34;;;8.17;91.24
17230;BME280;8731;50.364;8.958;2023-02-03T01:49:11;100995.31;;;8.22;90.93
17230;BME280;8731;50.364;8.958;2023-02-03T01:53:39;100997.34;;;8.17;91.57
17230;BME280;8731;50.364;8.958;2023-02-03T01:58:06;100986.25;;;8.24;91.12
17230;BME280;8731;50.364;8.958;2023-02-03T02:02:31;100969.97;;;8.22;91.19
17230;BME280;8731;50.364;8.958;2023-02-03T02:06:55;100961.63;;;8.23;90.94
17230;BME280;8731;50.364;8.958;2023-02-03T02:11:19;100977.41;;;8.20;91.63
17230;BME280;8731;50.364;8.958;2023-02-03T02:15:49;100986.50;;;8.11;92.20
17230;BME280;8731;50.364;8.958;2023-02-03T02:20:48;100985.03;;;8.13;91.95
17230;BME280;8731;50.364;8.958;2023-02-03T02:25:42;100985.25;;;8.08;92.73
17230;BME280;8731;50.364;8.958;2023-02-03T02:30:30;100981.59;;;8.13;92.91
17230;BME280;8731;50.364;8.958;2023-02-03T02:35:11;100977.22;;;8.19;93.10
17230;BME280;8731;50.364;8.958;2023-02-03T02:39:45;101004.25;;;8.11;92.58
17230;BME280;8731;50.364;8.958;2023-02-03T02:44:18;101005.13;;;8.19;92.87
17230;BME280;8731;50.364;8.958;2023-02-03T02:48:49;101009.13;;;8.17;93.43
17230;BME280;8731;50.364;8.958;2023-02-03T02:53:20;101004.97;;;8.10;93.29
17230;BME280;8731;50.364;8.958;2023-02-03T02:57:47;100989.91;;;8.19;93.24
17230;BME280;8731;50.364;8.958;2023-02-03T03:02:13;100998.81;;;8.15;93.32
17230;BME280;8731;50.364;8.958;2023-02-03T03:06:43;100990.47;;;8.16;93.50
17230;BME280;8731;50.364;8.958;2023-02-03T03:11:10;100997.69;;;8.20;93.36
17230;BME280;8731;50.364;8.958;2023-02-03T03:15:34;101010.72;;;8.23;93.13
17230;BME280;8731;50.364;8.958;2023-02-03T03:20:01;100988.44;;;8.21;93.32
17230;BME280;8731;50.364;8.958;2023-02-03T03:24:32;100971.06;;;8.17;93.82
17230;BME280;8731;50.364;8.958;2023-02-03T03:29:06;100953.31;;;8.17;93.53
17230;BME280;8731;50.364;8.958;2023-02-03T03:33:33;100942.28;;;8.16;93.96
17230;BME280;8731;50.364;8.958;2023-02-03T03:37:59;100935.09;;;8.05;94.53
17230;BME280;8731;50.364;8.958;2023-02-03T03:42:30;100955.84;;;8.17;93.96
17230;BME280;8731;50.364;8.958;2023-02-03T03:47:05;100967.47;;;8.15;94.24
17230;BME280;8731;50.364;8.958;2023-02-03T03:51:33;100927.22;;;8.18;93.64
17230;BME280;8731;50.364;8.958;2023-02-03T03:56:02;100926.84;;;8.22;93.62
17230;BME280;8731;50.364;8.958;2023-02-03T04:00:31;100912.69;;;8.24;92.71
17230;BME280;8731;50.364;8.958;2023-02-03T04:04:59;100938.97;;;8.24;93.30
17230;BME280;8731;50.364;8.958;2023-02-03T04:09:23;100963.78;;;8.27;92.23
17230;BME280;8731;50.364;8.958;2023-02-03T04:13:45;100976.84;;;8.30;92.07
17230;BME280;8731;50.364;8.958;2023-02-03T04:18:11;100960.50;;;8.28;91.90
17230;BME280;8731;50.364;8.958;2023-02-03T04:22:36;100951.28;;;8.28;92.41
17230;BME280;8731;50.364;8.958;2023-02-03T04:26:58;100970.66;;;8.28;92.61
17230;BME280;8731;50.364;8.958;2023-02-03T04:31:21;100981.91;;;8.30;92.99
17230;BME280;8731;50.364;8.958;2023-02-03T04:35:43;100984.63;;;8.24;92.84
17230;BME280;8731;50.364;8.958;2023-02-03T04:40:08;100972.50;;;8.29;93.13
17230;BME280;8731;50.364;8.958;2023-02-03T04:44:31;100971.22;;;8.25;93.47
17230;BME280;8731;50.364;8.958;2023-02-03T04:48:54;100955.81;;;8.24;93.59
17230;BME280;8731;50.364;8.958;2023-02-03T04:53:16;100953.84;;;8.21;93.66
17230;BME280;8731;50.364;8.958;2023-02-03T04:57:40;100958.91;;;8.21;93.81
17230;BME280;8731;50.364;8.958;2023-02-03T05:02:03;100950.22;;;8.19;93.68
17230;BME280;8731;50.364;8.958;2023-02-03T05:06:27;100926.84;;;8.22;93.70
17230;BME280;8731;50.364;8.958;2023-02-03T05:10:51;100921.94;;;8.23;93.22
17230;BME280;8731;50.364;8.958;2023-02-03T05:15:15;100913.81;;;8.19;93.27
17230;BME280;8731;50.364;8.958;2023-02-03T05:19:37;100934.09;;;8.19;93.19
17230;BME280;8731;50.364;8.958;2023-02-03T05:24:00;100914.16;;;8.22;92.86
17230;BME280;8731;50.364;8.958;2023-02-03T05:28:26;100900.41;;;8.20;93.40
17230;BME280;8731;50.364;8.958;2023-02-03T05:32:49;100899.84;;;8.22;93.59
17230;BME280;8731;50.364;8.958;2023-02-03T05:37:12;100901.31;;;8.20;94.21
17230;BME280;8731;50.364;8.958;2023-02-03T05:41:34;100911.63;;;8.22;94.71
17230;BME280;8731;50.364;8.958;2023-02-03T05:46:14;100909.81;;;8.21;94.61
17230;BME280;8731;50.364;8.958;2023-02-03T05:50:38;100906.19;;;8.19;94.69
17230;BME280;8731;50.364;8.958;2023-02-03T05:55:01;100918.88;;;8.19;94.31
17230;BME280;8731;50.364;8.958;2023-02-03T05:59:23;100910.72;;;8.21;94.38
17230;BME280;8731;50.364;8.958;2023-02-03T06:03:46;100920.88;;;8.21;94.68
17230;BME280;8731;50.364;8.958;2023-02-03T06:08:10;100924.16;;;8.13;94.87
17230;BME280;8731;50.364;8.958;2023-02-03T06:12:32;100898.59;;;8.19;94.68
17230;BME280;8731;50.364;8.958;2023-02-03T06:16:55;100912.19;;;8.19;94.72
17230;BME280;8731;50.364;8.958;2023-02-03T06:21:17;100901.19;;;8.12;94.68
17230;BME280;8731;50.364;8.958;2023-02-03T06:25:41;100906.59;;;8.15;94.57
17230;BME280;8731;50.364;8.958;2023-02-03T06:30:04;100902.75;;;8.18;94.44
17230;BME280;8731;50.364;8.958;2023-02-03T06:34:27;100920.53;;;8.18;93.83
17230;BME280;8731;50.364;8.958;2023-02-03T06:38:49;100929.03;;;8.19;93.66
17230;BME280;8731;50.364;8.958;2023-02-03T06:43:13;100939.50;;;8.29;93.46
17230;BME280;8731;50.364;8.958;2023-02-03T06:47:38;100936.13;;;8.14;92.93
17230;BME280;8731;50.364;8.958;2023-02-03T06:52:01;100926.66;;;8.20;92.79
17230;BME280;8731;50.364;8.958;2023-02-03T06:56:23;100917.44;;;8.21;92.64
17230;BME280;8731;50.364;8.958;2023-02-03T07:00:47;100928.81;;;8.24;92.58
17230;BME280;8731;50.364;8.958;2023-02-03T07:05:10;100915.06;;;8.22;92.60
17230;BME280;8731;50.364;8.958;2023-02-03T07:09:32;100930.28;;;8.22;92.53
17230;BME280;8731;50.364;8.958;2023-02-03T07:13:55;100927.00;;;8.23;92.36
17230;BME280;8731;50.364;8.958;2023-02-03T07:18:18;100926.81;;;8.29;92.39
17230;BME280;8731;50.364;8.958;2023-02-03T07:22:43;100920.28;;;8.31;91.65
17230;BME280;8731;50.364;8.958;2023-02-03T07:27:06;100930.78;;;8.27;91.84
17230;BME280;8731;50.364;8.958;2023-02-03T07:31:29;100919.91;;;8.28;92.37
17230;BME280;8731;50.364;8.958;2023-02-03T07:35:53;100918.09;;;8.27;91.24
17230;BME280;8731;50.364;8.958;2023-02-03T07:40:16;100924.09;;;8.27;91.59
17230;BME280;8731;50.364;8.958;2023-02-03T07:44:39;100935.50;;;8.31;91.17
17230;BME280;8731;50.364;8.958;2023-02-03T07:49:01;100922.47;;;8.35;91.12
17230;BME280;8731;50.364;8.958;2023-02-03T07:53:26;100938.22;;;8.32;90.75
17230;BME280;8731;50.364;8.958;2023-02-03T07:57:48;100939.50;;;8.36;90.37
17230;BME280;8731;50.364;8.958;2023-02-03T08:02:10;100948.19;;;8.38;90.81
17230;BME280;8731;50.364;8.958;2023-02-03T08:06:33;100953.81;;;8.36;90.45
17230;BME280;8731;50.364;8.958;2023-02-03T08:10:56;100937.31;;;8.39;90.38
17230;BME280;8731;50.364;8.958;2023-02-03T08:15:19;100944.91;;;8.39;90.13
17230;BME280;8731;50.364;8.958;2023-02-03T08:19:42;100931.50;;;8.40;90.03
17230;BME280;8731;50.364;8.958;2023-02-03T08:24:04;100919.09;;;8.50;90.19
17230;BME280;8731;50.364;8.958;2023-02-03T08:28:28;100919.66;;;8.48;89.34
17230;BME280;8731;50.364;8.958;2023-02-03T08:32:50;100928.00;;;8.47;89.50
17230;BME280;8731;50.364;8.958;2023-02-03T08:37:14;100911.50;;;8.50;89.73
17230;BME280;8731;50.364;8.958;2023-02-03T08:41:37;100896.97;;;8.56;89.84
17230;BME280;8731;50.364;8.958;2023-02-03T08:46:02;100893.94;;;8.52;89.31
17230;BME280;8731;50.364;8.958;2023-02-03T08:50:25;100893.88;;;8.59;89.42
17230;BME280;8731;50.364;8.958;2023-02-03T08:54:48;100891.72;;;8.55;88.88
17230;BME280;8731;50.364;8.958;2023-02-03T08:59:11;100891.91;;;8.56;87.81
17230;BME280;8731;50.364;8.958;2023-02-03T09:03:35;100904.31;;;8.69;88.12
17230;BME280;8731;50.364;8.958;2023-02-03T09:07:58;100898.56;;;8.63;87.32
17230;BME280;8731;50.364;8.958;2023-02-03T09:12:20;100899.56;;;8.72;87.28
17230;BME280;8731;50.364;8.958;2023-02-03T09:16:43;100886.31;;;8.75;87.27
17230;BME280;8731;50.364;8.958;2023-02-03T09:21:07;100889.38;;;8.79;86.82
17230;BME280;8731;50.364;8.958;2023-02-03T09:25:31;100896.75;;;8.85;87.37
17230;BME280;8731;50.364;8.958;2023-02-03T09:29:54;100905.06;;;8.91;86.54
17230;BME280;8731;50.364;8.958;2023-02-03T09:34:17;100886.88;;;8.95;85.94
17230;BME280;8731;50.364;8.958;2023-02-03T09:38:41;100876.16;;;8.98;85.83
17230;BME280;8731;50.364;8.958;2023-02-03T09:43:14;100888.81;;;9.05;85.07
17230;BME280;8731;50.364;8.958;2023-02-03T09:47:52;100878.25;;;9.09;84.64
17230;BME280;8731;50.364;8.958;2023-02-03T09:52:18;100891.50;;;9.06;84.22
17230;BME280;8731;50.364;8.958;2023-02-03T09:56:44;100887.84;;;9.11;83.62
17230;BME280;8731;50.364;8.958;2023-02-03T10:01:11;100878.00;;;9.14;83.64
17230;BME280;8731;50.364;8.958;2023-02-03T10:05:48;100879.41;;;9.19;83.74
17230;BME280;8731;50.364;8.958;2023-02-03T10:10:26;100890.81;;;9.23;83.07
17230;BME280;8731;50.364;8.958;2023-02-03T10:20:04;100890.19;;;9.33;82.85
17230;BME280;8731;50.364;8.958;2023-02-03T10:24:38;100900.84;;;9.37;82.48
17230;BME280;8731;50.364;8.958;2023-02-03T10:29:07;100907.47;;;9.44;82.43
17230;BME280;8731;50.364;8.958;2023-02-03T10:33:41;100899.47;;;9.48;82.33
17230;BME280;8731;50.364;8.958;2023-02-03T10:38:04;100887.09;;;9.51;82.14
17230;BME280;8731;50.364;8.958;2023-02-03T10:42:33;100887.81;;;9.50;82.57
17230;BME280;8731;50.364;8.958;2023-02-03T10:47:19;100880.13;;;9.57;82.76
17230;BME280;8731;50.364;8.958;2023-02-03T10:51:50;100873.66;;;9.52;82.42
17230;BME280;8731;50.364;8.958;2023-02-03T10:56:15;100864.69;;;9.56;82.94
17230;BME280;8731;50.364;8.958;2023-02-03T11:00:39;100864.88;;;9.57;83.34
17230;BME280;8731;50.364;8.958;2023-02-03T11:05:09;100869.53;;;9.61;84.10
17230;BME280;8731;50.364;8.958;2023-02-03T11:09:41;100871.97;;;9.68;83.67
17230;BME280;8731;50.364;8.958;2023-02-03T11:14:10;100872.06;;;9.61;84.37
17230;BME280;8731;50.364;8.958;2023-02-03T11:18:55;100885.69;;;9.62;84.49
17230;BME280;8731;50.364;8.958;2023-02-03T11:23:19;100888.41;;;9.63;84.48
17230;BME280;8731;50.364;8.958;2023-02-03T11:27:43;100902.34;;;9.82;84.50
17230;BME280;8731;50.364;8.958;2023-02-03T11:32:15;100886.84;;;9.72;85.34
17230;BME280;8731;50.364;8.958;2023-02-03T11:36:40;100887.59;;;9.71;85.14
17230;BME280;8731;50.364;8.958;2023-02-03T11:41:03;100861.06;;;9.69;85.54
17230;BME280;8731;50.364;8.958;2023-02-03T11:45:28;100850.59;;;9.66;85.87
17230;BME280;8731;50.364;8.958;2023-02-03T11:50:15;100844.03;;;9.68;86.63
17230;BME280;8731;50.364;8.958;2023-02-03T11:54:51;100822.94;;;9.69;86.62
17230;BME280;8731;50.364;8.958;2023-02-03T11:59:39;100818.69;;;9.61;87.19
17230;BME280;8731;50.364;8.958;2023-02-03T12:04:31;100814.19;;;9.59;88.31
17230;BME280;8731;50.364;8.958;2023-02-03T12:09:24;100810.25;;;9.53;88.50
17230;BME280;8731;50.364;8.958;2023-02-03T12:14:06;100802.53;;;9.61;88.73
17230;BME280;8731;50.364;8.958;2023-02-03T12:18:46;100835.50;;;9.52;90.12
17230;BME280;8731;50.364;8.958;2023-02-03T12:23:28;100835.84;;;9.55;90.46
17230;BME280;8731;50.364;8.958;2023-02-03T12:28:08;100844.84;;;9.60;90.35
17230;BME280;8731;50.364;8.958;2023-02-03T12:32:47;100839.50;;;9.66;90.78
17230;BME280;8731;50.364;8.958;2023-02-03T12:37:16;100841.56;;;9.61;90.94
17230;BME280;8731;50.364;8.958;2023-02-03T12:41:48;100832.28;;;9.46;92.42
17230;BME280;8731;50.364;8.958;2023-02-03T12:46:16;100829.28;;;9.57;92.64
17230;BME280;8731;50.364;8.958;2023-02-03T12:50:45;100814.59;;;9.54;93.15
17230;BME280;8731;50.364;8.958;2023-02-03T12:55:19;100807.56;;;9.52;94.27
17230;BME280;8731;50.364;8.958;2023-02-03T13:00:02;100800.25;;;9.55;94.52
17230;BME280;8731;50.364;8.958;2023-02-03T13:04:40;100808.13;;;9.49;96.21
17230;BME280;8731;50.364;8.958;2023-02-03T13:09:21;100810.50;;;9.48;97.15
17230;BME280;8731;50.364;8.958;2023-02-03T13:13:52;100814.50;;;9.46;98.26
17230;BME280;8731;50.364;8.958;2023-02-03T13:18:23;100824.19;;;9.41;98.33
17230;BME280;8731;50.364;8.958;2023-02-03T13:22:48;100819.25;;;9.43;99.22
17230;BME280;8731;50.364;8.958;2023-02-03T13:32:17;100816.66;;;9.34;100.00
17230;BME280;8731;50.364;8.958;2023-02-03T13:37:26;100807.13;;;9.40;100.00
17230;BME280;8731;50.364;8.958;2023-02-03T13:42:12;100792.63;;;9.39;99.68
17230;BME280;8731;50.364;8.958;2023-02-03T13:46:41;100802.03;;;9.40;99.79
17230;BME280;8731;50.364;8.958;2023-02-03T13:51:12;100796.81;;;9.39;100.00
17230;BME280;8731;50.364;8.958;2023-02-03T13:55:41;100790.19;;;9.48;99.57
17230;BME280;8731;50.364;8.958;2023-02-03T14:00:23;100786.81;;;9.40;100.00
17230;BME280;8731;50.364;8.958;2023-02-03T14:05:40;100800.41;;;9.41;100.00
17230;BME280;8731;50.364;8.958;2023-02-03T14:10:14;100803.22;;;9.51;100.00
17230;BME280;8731;50.364;8.958;2023-02-03T14:14:55;100817.03;;;9.46;100.00
17230;BME280;8731;50.364;8.958;2023-02-03T14:19:53;100817.03;;;9.46;100.00
17230;BME280;8731;50.364;8.958;2023-02-03T14:24:16;100817.56;;;9.50;100.00
17230;BME280;8731;50.364;8.958;2023-02-03T14:28:42;100821.06;;;9.44;100.00
17230;BME280;8731;50.364;8.958;2023-02-03T14:33:07;100797.97;;;9.49;100.00
17230;BME280;8731;50.364;8.958;2023-02-03T14:37:30;100794.16;;;9.46;100.00
17230;BME280;8731;50.364;8.958;2023-02-03T14:41:58;100817.56;;;9.50;100.00
17230;BME280;8731;50.364;8.958;2023-02-03T14:46:42;100828.69;;;9.60;100.00
17230;BME280;8731;50.364;8.958;2023-02-03T14:51:22;100825.66;;;9.55;100.00
17230;BME280;8731;50.364;8.958;2023-02-03T14:56:10;100846.50;;;9.60;100.00
17230;BME280;8731;50.364;8.958;2023-02-03T15:00:36;100845.28;;;9.56;100.00
17230;BME280;8731;50.364;8.958;2023-02-03T15:09:58;100842.78;;;9.65;100.00
17230;BME280;8731;50.364;8.958;2023-02-03T15:14:22;100841.00;;;9.64;100.00
17230;BME280;8731;50.364;8.958;2023-02-03T15:18:53;100841.47;;;9.68;100.00
17230;BME280;8731;50.364;8.958;2023-02-03T15:23:18;100845.19;;;9.63;100.00
17230;BME280;8731;50.364;8.958;2023-02-03T15:27:44;100845.50;;;9.66;100.00
17230;BME280;8731;50.364;8.958;2023-02-03T15:32:10;100837.22;;;9.60;100.00
17230;BME280;8731;50.364;8.958;2023-02-03T15:36:41;100827.78;;;9.59;100.00
17230;BME280;8731;50.364;8.958;2023-02-03T15:41:15;100825.41;;;9.61;100.00
17230;BME280;8731;50.364;8.958;2023-02-03T15:45:54;100818.53;;;9.60;100.00
17230;BME280;8731;50.364;8.958;2023-02-03T15:50:27;100836.06;;;9.65;100.00
17230;BME280;8731;50.364;8.958;2023-02-03T15:54:58;100817.78;;;9.61;100.00
17230;BME280;8731;50.364;8.958;2023-02-03T15:59:30;100820.41;;;9.69;99.89
17230;BME280;8731;50.364;8.958;2023-02-03T16:03:57;100811.53;;;9.66;99.75
17230;BME280;8731;50.364;8.958;2023-02-03T16:08:31;100832.41;;;9.70;99.36
17230;BME280;8731;50.364;8.958;2023-02-03T16:13:17;100844.03;;;9.68;98.61
17230;BME280;8731;50.364;8.958;2023-02-03T16:17:41;100854.88;;;9.74;98.53
17230;BME280;8731;50.364;8.958;2023-02-03T16:22:30;100878.16;;;9.70;97.84
17230;BME280;8731;50.364;8.958;2023-02-03T16:27:18;100869.81;;;9.71;97.93
17230;BME280;8731;50.364;8.958;2023-02-03T16:31:51;100873.78;;;9.69;98.42
17230;BME280;8731;50.364;8.958;2023-02-03T16:36:31;100864.53;;;9.70;98.38
17230;BME280;8731;50.364;8.958;2023-02-03T16:41:15;100869.59;;;9.70;98.27
17230;BME280;8731;50.364;8.958;2023-02-03T16:45:57;100861.91;;;9.61;98.39
17230;BME280;8731;50.364;8.958;2023-02-03T16:50:37;100868.00;;;9.70;98.76
17230;BME280;8731;50.364;8.958;2023-02-03T16:55:13;100882.84;;;9.74;98.52
17230;BME280;8731;50.364;8.958;2023-02-03T16:59:36;100890.16;;;9.71;97.90
17230;BME280;8731;50.364;8.958;2023-02-03T17:03:58;100896.66;;;9.69;97.83
17230;BME280;8731;50.364;8.958;2023-02-03T17:08:22;100906.47;;;9.73;98.10
17230;BME280;8731;50.364;8.958;2023-02-03T17:12:46;100940.63;;;9.68;98.06
17230;BME280;8731;50.364;8.958;2023-02-03T17:17:09;100915.00;;;9.74;98.57
17230;BME280;8731;50.364;8.958;2023-02-03T17:21:31;100930.75;;;9.78;97.77
17230;BME280;8731;50.364;8.958;2023-02-03T17:25:54;100918.09;;;9.71;96.89
17230;BME280;8731;50.364;8.958;2023-02-03T17:30:16;100914.66;;;9.71;95.17
17230;BME280;8731;50.364;8.958;2023-02-03T17:34:40;100913.75;;;9.70;93.90
17230;BME280;8731;50.364;8.958;2023-02-03T17:39:03;100912.34;;;9.65;92.86
17230;BME280;8731;50.364;8.958;2023-02-03T17:43:26;100912.91;;;9.63;90.55
17230;BME280;8731;50.364;8.958;2023-02-03T17:47:52;100920.22;;;9.60;89.28
17230;BME280;8731;50.364;8.958;2023-02-03T17:52:17;100940.22;;;9.57;87.75
17230;BME280;8731;50.364;8.958;2023-02-03T17:56:39;100943.22;;;9.45;85.67
17230;BME280;8731;50.364;8.958;2023-02-03T18:01:06;100938.53;;;9.41;83.86
17230;BME280;8731;50.364;8.958;2023-02-03T18:05:34;100954.38;;;9.39;82.82
17230;BME280;8731;50.364;8.958;2023-02-03T18:09:59;100950.50;;;9.27;80.48
17230;BME280;8731;50.364;8.958;2023-02-03T18:14:21;100965.00;;;9.28;79.37
17230;BME280;8731;50.364;8.958;2023-02-03T18:18:44;100962.41;;;9.35;79.87
17230;BME280;8731;50.364;8.958;2023-02-03T18:23:06;100974.84;;;9.25;78.68
17230;BME280;8731;50.364;8.958;2023-02-03T18:27:30;100996.25;;;9.19;78.45
17230;BME280;8731;50.364;8.958;2023-02-03T18:31:52;101025.66;;;9.25;79.15
17230;BME280;8731;50.364;8.958;2023-02-03T18:36:15;101030.72;;;9.25;78.51
17230;BME280;8731;50.364;8.958;2023-02-03T18:40:37;101047.97;;;9.20;78.55
17230;BME280;8731;50.364;8.958;2023-02-03T18:45:01;101037.47;;;9.17;77.82
17230;BME280;8731;50.364;8.958;2023-02-03T18:49:25;101029.69;;;9.15;77.75
17230;BME280;8731;50.364;8.958;2023-02-03T18:53:48;101034.44;;;9.12;78.01
17230;BME280;8731;50.364;8.958;2023-02-03T18:58:11;101058.38;;;9.14;78.18
17230;BME280;8731;50.364;8.958;2023-02-03T19:02:35;101041.78;;;9.02;77.36
17230;BME280;8731;50.364;8.958;2023-02-03T19:06:57;101044.31;;;8.95;77.11
17230;BME280;8731;50.364;8.958;2023-02-03T19:11:19;101043.75;;;8.98;78.30
17230;BME280;8731;50.364;8.958;2023-02-03T19:15:42;101052.69;;;8.94;78.62
17230;BME280;8731;50.364;8.958;2023-02-03T19:20:07;101044.56;;;8.89;78.90
17230;BME280;8731;50.364;8.958;2023-02-03T19:24:30;101049.13;;;8.85;78.59
17230;BME280;8731;50.364;8.958;2023-02-03T19:28:53;101048.09;;;8.76;77.53
17230;BME280;8731;50.364;8.958;2023-02-03T19:33:15;101049.16;;;8.78;78.07
17230;BME280;8731;50.364;8.958;2023-02-03T19:37:39;101058.59;;;8.79;78.70
17230;BME280;8731;50.364;8.958;2023-02-03T19:42:02;101071.28;;;8.72;78.53
17230;BME280;8731;50.364;8.958;2023-02-03T19:46:24;101074.19;;;8.75;79.13
17230;BME280;8731;50.364;8.958;2023-02-03T19:50:51;101085.09;;;8.67;78.08
17230;BME280;8731;50.364;8.958;2023-02-03T19:55:14;101090.00;;;8.65;78.47
17230;BME280;8731;50.364;8.958;2023-02-03T19:59:37;101079.47;;;8.69;78.65
17230;BME280;8731;50.364;8.958;2023-02-03T20:03:59;101073.69;;;8.63;77.92
17230;BME280;8731;50.364;8.958;2023-02-03T20:08:21;101096.38;;;8.61;78.26
17230;BME280;8731;50.364;8.958;2023-02-03T20:12:45;101091.63;;;8.65;78.18
17230;BME280;8731;50.364;8.958;2023-02-03T20:17:07;101089.47;;;8.60;78.02
17230;BME280;8731;50.364;8.958;2023-02-03T20:21:30;101084.41;;;8.60;77.52
17230;BME280;8731;50.364;8.958;2023-02-03T20:25:53;101088.03;;;8.63;77.52
17230;BME280;8731;50.364;8.958;2023-02-03T20:30:17;101097.13;;;8.53;77.20
17230;BME280;8731;50.364;8.958;2023-02-03T20:34:39;101095.13;;;8.58;77.68
17230;BME280;8731;50.364;8.958;2023-02-03T20:39:01;101105.81;;;8.55;77.19
17230;BME280;8731;50.364;8.958;2023-02-03T20:43:25;101104.19;;;8.49;77.50
17230;BME280;8731;50.364;8.958;2023-02-03T20:47:50;101109.44;;;8.50;78.24
17230;BME280;8731;50.364;8.958;2023-02-03T20:52:14;101119.78;;;8.52;78.10
17230;BME280;8731;50.364;8.958;2023-02-03T20:56:38;101112.72;;;8.56;78.48
17230;BME280;8731;50.364;8.958;2023-02-03T21:01:00;101111.06;;;8.50;78.31
17230;BME280;8731;50.364;8.958;2023-02-03T21:05:27;101126.47;;;8.51;78.19
17230;BME280;8731;50.364;8.958;2023-02-03T21:09:52;101138.81;;;8.55;77.83
17230;BME280;8731;50.364;8.958;2023-02-03T21:14:17;101167.28;;;8.53;78.18
17230;BME280;8731;50.364;8.958;2023-02-03T21:18:45;101186.88;;;8.54;77.53
17230;BME280;8731;50.364;8.958;2023-02-03T21:23:11;101181.41;;;8.51;77.61
17230;BME280;8731;50.364;8.958;2023-02-03T21:27:33;101183.03;;;8.50;76.76
17230;BME280;8731;50.364;8.958;2023-02-03T21:31:56;101194.31;;;8.52;77.24
17230;BME280;8731;50.364;8.958;2023-02-03T21:36:20;101201.53;;;8.56;77.44
17230;BME280;8731;50.364;8.958;2023-02-03T21:40:45;101196.81;;;8.59;77.52
17230;BME280;8731;50.364;8.958;2023-02-03T21:45:29;101194.31;;;8.52;77.36
17230;BME280;8731;50.364;8.958;2023-02-03T21:49:56;101191.03;;;8.53;77.99
17230;BME280;8731;50.364;8.958;2023-02-03T21:54:24;101191.75;;;8.59;77.63
17230;BME280;8731;50.364;8.958;2023-02-03T21:58:51;101184.50;;;8.48;77.36
17230;BME280;8731;50.364;8.958;2023-02-03T22:03:21;101180.69;;;8.45;77.93
17230;BME280;8731;50.364;8.958;2023-02-03T22:07:47;101187.75;;;8.47;77.69
17230;BME280;8731;50.364;8.958;2023-02-03T22:12:10;101192.84;;;8.47;77.80
17230;BME280;8731;50.364;8.958;2023-02-03T22:16:33;101189.97;;;8.37;78.30
17230;BME280;8731;50.364;8.958;2023-02-03T22:20:56;101206.09;;;8.38;77.58
17230;BME280;8731;50.364;8.958;2023-02-03T22:25:18;101209.16;;;8.42;78.10
17230;BME280;8731;50.364;8.958;2023-02-03T22:29:41;101216.78;;;8.35;78.01
17230;BME280;8731;50.364;8.958;2023-02-03T22:34:06;101240.13;;;8.32;78.13
17230;BME280;8731;50.364;8.958;2023-02-03T22:38:28;101250.13;;;8.38;78.19
17230;BME280;8731;50.364;8.958;2023-02-03T22:42:51;101250.28;;;8.32;78.21
17230;BME280;8731;50.364;8.958;2023-02-03T22:47:13;101248.47;;;8.31;78.10
17230;BME280;8731;50.364;8.958;2023-02-03T22:51:38;101260.25;;;8.31;78.30
17230;BME280;8731;50.364;8.958;2023-02-03T22:56:00;101264.63;;;8.39;78.39
17230;BME280;8731;50.364;8.958;2023-02-03T23:00:24;101271.16;;;8.37;78.37
17230;BME280;8731;50.364;8.958;2023-02-03T23:04:47;101282.22;;;8.38;78.47
17230;BME280;8731;50.364;8.958;2023-02-03T23:09:11;101297.44;;;8.38;78.04
17230;BME280;8731;50.364;8.958;2023-02-03T23:13:33;101293.06;;;8.29;78.04
17230;BME280;8731;50.364;8.958;2023-02-03T23:17:56;101288.72;;;8.28;78.05
17230;BME280;8731;50.364;8.958;2023-02-03T23:22:18;101301.53;;;8.23;78.13
17230;BME280;8731;50.364;8.958;2023-02-03T23:26:42;101299.00;;;8.23;78.09
17230;BME280;8731;50.364;8.958;2023-02-03T23:31:04;101304.44;;;8.19;78.02
17230;BME280;8731;50.364;8.958;2023-02-03T23:35:27;101304.25;;;8.24;78.02
17230;BME280;8731;50.364;8.958;2023-02-03T23:40:09;101314.97;;;8.29;78.16
17230;BME280;8731;50.364;8.958;2023-02-03T23:44:34;101316.75;;;8.23;78.38
17230;BME280;8731;50.364;8.958;2023-02-03T23:48:56;101326.53;;;8.20;78.17
17230;BME280;8731;50.364;8.958;2023-02-03T23:53:18;101330.53;;;8.11;78.30
17230;BME280;8731;50.364;8.958;2023-02-03T23:57:40;101325.81;;;8.21;78.41
